Time;durP1;ratioP1;P1;durP2;ratioP2;P2;SDS_P1;SDS_P2;PMS_P1;PMS_P2;Temp;Humidity;BMP_temperature;BMP_pressure;BME280_temperature;BME280_humidity;BME280_pressure;Samples;Min_cycle;Max_cycle;Signal;HPM_P1;HPM_P2
2023/09/06 00:00:40;;;;;;;9.68;4.88;;;19.10;99.90;;;;;;4993949;28;20654;-69
2023/09/06 00:03:06;;;;;;;8.48;4.07;;;19.10;99.90;;;;;;4962546;28;20053;-69
2023/09/06 00:05:32;;;;;;;9.35;4.60;;;19.00;99.90;;;;;;4978736;28;20050;-69
2023/09/06 00:07:58;;;;;;;9.48;5.10;;;19.00;99.90;;;;;;4950227;28;20156;-70
2023/09/06 00:10:25;;;;;;;10.38;5.03;;;18.90;99.90;;;;;;4994987;28;20054;-70
2023/09/06 00:12:51;;;;;;;11.43;4.60;;;18.90;99.90;;;;;;4943711;28;20121;-73
2023/09/06 00:15:18;;;;;;;9.55;4.78;;;18.90;99.90;;;;;;4984161;28;20097;-72
2023/09/06 00:17:44;;;;;;;9.45;5.03;;;18.90;99.90;;;;;;4944415;28;20053;-70
2023/09/06 00:20:21;;;;;;;10.05;4.90;;;18.80;99.90;;;;;;4980445;28;20427;-71
2023/09/06 00:22:57;;;;;;;9.40;4.60;;;18.80;99.90;;;;;;4947028;28;20051;-72
2023/09/06 00:25:25;;;;;;;9.13;4.80;;;18.70;99.90;;;;;;4978620;28;20054;-72
2023/09/06 00:27:52;;;;;;;10.27;4.40;;;18.70;99.90;;;;;;4939799;28;20543;-73
2023/09/06 00:30:18;;;;;;;8.23;4.10;;;18.60;99.90;;;;;;4979743;28;20054;-70
2023/09/06 00:32:46;;;;;;;9.85;4.35;;;18.60;99.90;;;;;;4943749;28;20048;-70
2023/09/06 00:35:12;;;;;;;9.23;4.82;;;18.60;99.90;;;;;;4970779;28;20077;-72
2023/09/06 00:37:40;;;;;;;10.88;4.70;;;18.50;99.90;;;;;;4944784;28;20069;-70
2023/09/06 00:40:17;;;;;;;11.23;5.18;;;18.50;99.90;;;;;;4998142;28;20058;-72
2023/09/06 00:42:46;;;;;;;8.95;4.53;;;18.50;99.90;;;;;;4942237;28;20119;-71
2023/09/06 00:45:12;;;;;;;9.10;4.32;;;18.50;99.90;;;;;;4973202;28;20062;-70
2023/09/06 00:47:41;;;;;;;9.93;4.90;;;18.50;99.90;;;;;;4942228;28;20061;-71
2023/09/06 00:50:12;;;;;;;11.50;5.32;;;18.40;99.90;;;;;;4963898;28;20058;-73
2023/09/06 00:52:40;;;;;;;11.05;4.90;;;18.40;99.90;;;;;;4935957;28;20042;-70
2023/09/06 00:55:06;;;;;;;12.63;5.18;;;18.40;99.90;;;;;;5003828;28;20054;-72
2023/09/06 00:57:33;;;;;;;12.65;4.75;;;18.40;99.90;;;;;;4944972;28;20058;-70
2023/09/06 00:59:59;;;;;;;14.32;4.93;;;18.40;99.90;;;;;;4978043;28;20429;-70
2023/09/06 01:02:26;;;;;;;10.05;5.18;;;18.40;99.90;;;;;;4971697;28;20050;-71
2023/09/06 01:04:53;;;;;;;9.50;4.78;;;18.30;99.90;;;;;;4956521;28;20053;-70
2023/09/06 01:07:23;;;;;;;10.40;4.97;;;18.30;99.90;;;;;;4980721;28;20058;-71
2023/09/06 01:09:50;;;;;;;10.63;4.53;;;18.30;99.90;;;;;;4928628;28;20054;-71
2023/09/06 01:12:16;;;;;;;8.27;4.28;;;18.30;99.90;;;;;;5001396;28;20054;-72
2023/09/06 01:14:43;;;;;;;9.38;4.40;;;18.20;99.90;;;;;;4979824;28;20053;-70
2023/09/06 01:17:13;;;;;;;9.23;4.50;;;18.20;99.90;;;;;;5006786;28;20057;-71
2023/09/06 01:19:51;;;;;;;9.90;4.70;;;18.10;99.90;;;;;;4933025;28;20061;-71
2023/09/06 01:22:26;;;;;;;9.80;5.35;;;18.10;99.90;;;;;;5006292;28;20050;-70
2023/09/06 01:24:53;;;;;;;10.65;4.93;;;18.00;99.90;;;;;;4963786;28;20438;-71
2023/09/06 01:27:20;;;;;;;11.32;4.63;;;18.00;99.90;;;;;;5005572;28;20056;-72
2023/09/06 01:29:46;;;;;;;10.98;4.40;;;17.90;99.90;;;;;;4945371;28;20631;-70
2023/09/06 01:32:13;;;;;;;9.88;4.22;;;17.90;99.90;;;;;;5002881;28;20423;-70
2023/09/06 01:34:39;;;;;;;10.75;5.10;;;17.80;99.90;;;;;;4962984;28;20049;-70
2023/09/06 01:37:06;;;;;;;10.52;4.10;;;17.80;99.90;;;;;;5011833;28;20056;-70
2023/09/06 01:39:32;;;;;;;9.55;4.78;;;17.80;99.90;;;;;;4958784;28;20061;-71
2023/09/06 01:41:58;;;;;;;10.10;4.53;;;17.80;99.90;;;;;;5008194;28;20061;-70
2023/09/06 01:44:25;;;;;;;9.00;4.68;;;17.70;99.90;;;;;;4969391;28;20410;-71
2023/09/06 01:46:51;;;;;;;10.65;4.70;;;17.70;99.90;;;;;;5005890;28;20057;-70
2023/09/06 01:49:17;;;;;;;11.18;4.80;;;17.70;99.90;;;;;;4930911;28;20503;-70
2023/09/06 01:51:43;;;;;;;10.35;5.05;;;17.70;99.90;;;;;;5003745;28;20414;-70
2023/09/06 01:54:11;;;;;;;10.95;5.35;;;17.60;99.90;;;;;;4941334;28;137873;-70
2023/09/06 01:56:37;;;;;;;9.10;4.40;;;17.60;99.90;;;;;;5007230;28;20061;-71
2023/09/06 01:59:03;;;;;;;9.70;4.13;;;17.60;99.90;;;;;;4974405;28;20049;-72
2023/09/06 02:01:30;;;;;;;10.30;4.70;;;17.50;99.90;;;;;;5007141;28;20065;-73
2023/09/06 02:03:56;;;;;;;8.90;4.50;;;17.50;99.90;;;;;;4963312;28;20046;-71
2023/09/06 02:06:22;;;;;;;11.43;5.68;;;17.50;99.90;;;;;;5001300;28;20518;-71
2023/09/06 02:08:49;;;;;;;11.68;4.70;;;17.40;99.90;;;;;;4964340;28;20081;-73
2023/09/06 02:11:15;;;;;;;10.52;4.57;;;17.40;99.90;;;;;;4990619;28;20054;-74
2023/09/06 02:13:41;;;;;;;10.90;4.80;;;17.30;99.90;;;;;;4939106;28;20710;-70
2023/09/06 02:16:07;;;;;;;10.73;4.68;;;17.30;99.90;;;;;;4979601;28;20049;-69
2023/09/06 02:18:33;;;;;;;9.95;4.82;;;17.30;99.90;;;;;;4951847;28;20483;-69
2023/09/06 02:21:00;;;;;;;9.73;4.35;;;17.20;99.90;;;;;;4991395;28;20050;-71
2023/09/06 02:23:26;;;;;;;9.20;5.00;;;17.20;99.90;;;;;;4937477;28;20039;-70
2023/09/06 02:25:52;;;;;;;8.10;4.07;;;17.20;99.90;;;;;;4976517;28;20061;-70
2023/09/06 02:28:18;;;;;;;8.93;4.30;;;17.20;99.90;;;;;;4945328;28;20368;-70
2023/09/06 02:30:45;;;;;;;9.55;4.22;;;17.20;99.90;;;;;;4973032;28;20054;-71
2023/09/06 02:33:13;;;;;;;10.95;4.45;;;17.10;99.90;;;;;;4946069;28;20053;-69
2023/09/06 02:35:40;;;;;;;9.85;4.75;;;17.10;99.90;;;;;;4953603;28;20046;-71
2023/09/06 02:38:10;;;;;;;9.43;4.80;;;17.10;99.90;;;;;;4947593;28;20121;-70
2023/09/06 02:40:37;;;;;;;7.78;3.92;;;17.00;99.90;;;;;;4981823;28;20145;-71
2023/09/06 02:43:04;;;;;;;10.23;5.13;;;17.00;99.90;;;;;;4941643;28;20061;-71
2023/09/06 02:45:36;;;;;;;8.68;4.68;;;17.00;99.90;;;;;;4967017;28;20065;-72
2023/09/06 02:48:13;;;;;;;10.23;4.32;;;17.00;99.90;;;;;;4935360;28;20058;-72
2023/09/06 02:50:40;;;;;;;9.48;5.00;;;16.90;99.90;;;;;;4971027;28;21529;-71
2023/09/06 02:53:19;;;;;;;11.38;4.72;;;16.90;99.90;;;;;;4936564;28;48255;-72
2023/09/06 02:55:51;;;;;;;9.98;5.07;;;16.90;99.90;;;;;;4983665;28;20062;-71
2023/09/06 02:58:18;;;;;;;10.43;5.10;;;16.80;99.90;;;;;;4940593;28;20546;-74
2023/09/06 03:00:47;;;;;;;10.18;4.50;;;16.80;99.90;;;;;;4989520;28;20062;-72
2023/09/06 03:03:15;;;;;;;10.02;4.93;;;16.80;99.90;;;;;;4950869;28;20058;-71
2023/09/06 03:05:42;;;;;;;10.63;4.85;;;16.70;99.90;;;;;;4995020;28;20061;-71
2023/09/06 03:08:12;;;;;;;9.65;4.40;;;16.70;99.90;;;;;;4933730;28;20039;-69
2023/09/06 03:10:44;;;;;;;8.82;3.83;;;16.70;99.90;;;;;;4971399;28;20539;-72
2023/09/06 03:13:10;;;;;;;8.65;4.00;;;16.60;99.90;;;;;;4947664;28;20050;-69
2023/09/06 03:15:36;;;;;;;9.45;3.80;;;16.60;99.90;;;;;;4989352;28;20057;-72
2023/09/06 03:18:04;;;;;;;9.25;4.85;;;16.60;99.90;;;;;;4964266;28;20052;-71
2023/09/06 03:20:34;;;;;;;8.48;3.90;;;16.60;99.90;;;;;;5007442;28;20068;-73
2023/09/06 03:23:01;;;;;;;11.23;3.72;;;16.50;99.90;;;;;;4967832;28;20037;-70
2023/09/06 03:25:28;;;;;;;8.93;4.38;;;16.50;99.90;;;;;;5009949;28;20438;-72
2023/09/06 03:28:01;;;;;;;8.75;4.07;;;16.50;99.90;;;;;;4964527;28;21971;-71
2023/09/06 03:30:30;;;;;;;10.52;4.70;;;16.50;99.90;;;;;;4987762;28;20058;-70
2023/09/06 03:32:58;;;;;;;9.95;4.85;;;16.50;99.90;;;;;;4960533;28;20042;-71
2023/09/06 03:35:24;;;;;;;10.65;5.50;;;16.60;99.90;;;;;;4987757;28;20050;-71
2023/09/06 03:37:50;;;;;;;11.73;4.72;;;16.60;99.90;;;;;;4967373;28;20575;-69
2023/09/06 03:40:25;;;;;;;9.20;4.30;;;16.60;99.90;;;;;;4992047;28;20066;-70
2023/09/06 03:42:53;;;;;;;10.55;4.30;;;16.60;99.90;;;;;;4972546;28;20457;-73
2023/09/06 03:45:21;;;;;;;11.10;4.75;;;16.60;99.90;;;;;;5017080;28;20061;-75
2023/09/06 03:47:48;;;;;;;12.13;4.57;;;16.60;99.90;;;;;;4956601;28;20043;-70
2023/09/06 03:50:15;;;;;;;8.20;3.95;;;16.50;99.90;;;;;;4987511;28;20053;-70
2023/09/06 03:52:43;;;;;;;10.45;4.60;;;16.50;99.90;;;;;;4954580;28;20049;-70
2023/09/06 03:55:10;;;;;;;9.07;4.40;;;16.40;99.90;;;;;;4998126;28;20046;-71
2023/09/06 03:57:37;;;;;;;11.32;5.25;;;16.40;99.90;;;;;;4964282;28;45499;-71
2023/09/06 04:02:49;;;;;;;9.63;4.15;;;16.40;99.90;;;;;;4963269;28;20059;-69
2023/09/06 04:05:16;;;;;;;12.60;4.80;;;16.30;99.90;;;;;;4995878;28;20428;-71
2023/09/06 04:07:43;;;;;;;12.15;5.22;;;16.30;99.90;;;;;;4947790;28;20085;-73
2023/09/06 04:10:16;;;;;;;8.93;3.80;;;16.30;99.90;;;;;;4988698;28;20468;-69
2023/09/06 04:12:44;;;;;;;11.30;4.40;;;16.20;99.90;;;;;;4940673;28;20428;-70
2023/09/06 04:15:14;;;;;;;9.30;4.32;;;16.20;99.90;;;;;;4960832;28;20743;-70
2023/09/06 04:17:40;;;;;;;8.77;4.70;;;16.20;99.90;;;;;;4943247;28;20046;-70
2023/09/06 04:20:19;;;;;;;9.23;4.82;;;16.20;99.90;;;;;;4963898;28;20054;-72
2023/09/06 04:22:46;;;;;;;11.07;4.93;;;16.20;99.90;;;;;;4944155;28;20039;-69
2023/09/06 04:25:17;;;;;;;10.00;5.10;;;16.20;99.90;;;;;;4979769;28;20055;-70
2023/09/06 04:27:44;;;;;;;9.52;5.28;;;16.20;99.90;;;;;;4944822;28;20047;-71
2023/09/06 04:30:13;;;;;;;11.13;5.22;;;16.20;99.90;;;;;;4981738;28;20046;-69
2023/09/06 04:32:39;;;;;;;9.82;5.68;;;16.20;99.90;;;;;;4976225;28;20062;-69
2023/09/06 04:35:06;;;;;;;9.90;4.95;;;16.20;99.90;;;;;;4960488;28;20783;-71
2023/09/06 04:37:32;;;;;;;10.55;5.30;;;16.20;99.90;;;;;;4943474;28;20047;-74
2023/09/06 04:39:59;;;;;;;9.65;5.55;;;16.20;99.90;;;;;;4995763;28;20515;-71
2023/09/06 04:42:25;;;;;;;13.75;6.13;;;16.20;99.90;;;;;;4968511;28;20054;-72
2023/09/06 04:44:51;;;;;;;10.35;5.15;;;16.30;99.90;;;;;;4972988;28;21279;-72
2023/09/06 04:47:17;;;;;;;12.52;5.93;;;16.30;99.90;;;;;;5021062;28;20062;-71
2023/09/06 04:49:45;;;;;;;11.52;5.43;;;16.30;99.90;;;;;;4964460;28;20162;-70
2023/09/06 04:52:11;;;;;;;10.80;5.22;;;16.30;99.90;;;;;;5003403;28;20054;-70
2023/09/06 04:54:37;;;;;;;10.55;5.25;;;16.30;99.90;;;;;;4937400;28;243238;-70
2023/09/06 04:57:04;;;;;;;13.18;6.00;;;16.30;99.90;;;;;;5004485;28;20404;-71
2023/09/06 04:59:33;;;;;;;12.10;6.15;;;16.30;99.90;;;;;;4964498;28;20053;-70
2023/09/06 05:01:59;;;;;;;10.88;5.55;;;16.30;99.90;;;;;;5006402;28;20058;-70
2023/09/06 05:04:25;;;;;;;9.23;5.28;;;16.20;99.90;;;;;;4974995;28;20414;-69
2023/09/06 05:06:51;;;;;;;10.02;5.30;;;16.20;99.90;;;;;;5002196;28;20253;-70
2023/09/06 05:09:19;;;;;;;9.98;5.57;;;16.20;99.90;;;;;;4975367;28;20053;-74
2023/09/06 05:11:46;;;;;;;9.45;5.03;;;16.20;99.90;;;;;;5006798;28;20057;-72
2023/09/06 05:14:12;;;;;;;10.43;5.95;;;16.20;99.90;;;;;;4975385;28;165117;-73
2023/09/06 05:16:40;;;;;;;11.95;5.68;;;16.20;99.90;;;;;;5005509;28;20640;-73
2023/09/06 05:19:06;;;;;;;10.57;4.65;;;16.10;99.90;;;;;;4962812;28;20061;-71
2023/09/06 05:21:34;;;;;;;10.88;5.82;;;16.20;99.90;;;;;;5004428;28;20558;-73
2023/09/06 05:24:01;;;;;;;11.38;6.43;;;16.20;99.90;;;;;;4952560;28;20057;-71
2023/09/06 05:26:27;;;;;;;10.80;6.00;;;16.20;99.90;;;;;;4990875;28;20423;-70
2023/09/06 05:28:53;;;;;;;12.00;5.20;;;16.20;99.90;;;;;;4950944;28;20058;-72
2023/09/06 05:31:19;;;;;;;10.02;5.30;;;16.40;99.90;;;;;;5002647;28;20058;-70
2023/09/06 05:33:46;;;;;;;12.82;6.13;;;16.50;99.90;;;;;;4962170;28;20148;-70
2023/09/06 05:36:12;;;;;;;12.15;6.40;;;16.50;99.90;;;;;;4992399;28;20065;-70
2023/09/06 05:38:38;;;;;;;13.32;6.55;;;16.60;99.90;;;;;;4959737;28;20152;-69
2023/09/06 05:41:05;;;;;;;14.02;6.75;;;16.90;99.90;;;;;;5005691;28;20522;-71
2023/09/06 05:43:31;;;;;;;11.18;5.35;;;17.60;99.90;;;;;;4966570;28;20054;-72
2023/09/06 05:45:57;;;;;;;11.18;5.50;;;18.20;99.90;;;;;;5002213;28;20053;-69
2023/09/06 05:48:23;;;;;;;11.10;5.20;;;18.70;99.90;;;;;;4969158;28;20617;-70
2023/09/06 05:50:49;;;;;;;11.77;5.00;;;19.20;99.90;;;;;;5010249;28;20057;-70
2023/09/06 05:53:15;;;;;;;9.65;4.50;;;19.60;99.90;;;;;;4951898;28;37492;-70
2023/09/06 05:55:42;;;;;;;11.48;4.57;;;20.10;99.90;;;;;;4998835;28;20054;-72
2023/09/06 05:58:08;;;;;;;10.05;4.82;;;20.50;99.90;;;;;;4965402;28;20049;-73
2023/09/06 06:00:35;;;;;;;10.48;4.68;;;20.80;99.90;;;;;;5010431;28;20058;-71
2023/09/06 06:03:02;;;;;;;12.52;4.45;;;21.10;99.90;;;;;;4974591;28;20112;-71
2023/09/06 06:05:28;;;;;;;9.60;4.25;;;21.40;99.90;;;;;;5019602;28;20519;-72
2023/09/06 06:07:57;;;;;;;15.15;4.50;;;21.70;99.90;;;;;;4971308;28;20057;-71
2023/09/06 06:10:23;;;;;;;10.75;3.83;;;22.10;99.90;;;;;;5017756;28;20052;-69
2023/09/06 06:12:49;;;;;;;9.82;3.60;;;22.20;99.90;;;;;;4968395;28;20062;-71
2023/09/06 06:15:16;;;;;;;10.15;4.00;;;22.50;99.90;;;;;;5000264;28;20077;-71
2023/09/06 06:17:42;;;;;;;10.02;3.45;;;22.80;99.90;;;;;;4969576;28;20543;-71
2023/09/06 06:20:10;;;;;;;8.73;3.55;;;23.10;99.90;;;;;;4987156;28;20049;-71
2023/09/06 06:22:40;;;;;;;11.73;4.05;;;23.40;99.90;;;;;;4960939;28;20053;-72
2023/09/06 06:25:08;;;;;;;9.50;3.08;;;23.70;99.90;;;;;;4986334;28;20054;-72
2023/09/06 06:27:34;;;;;;;8.40;3.20;;;23.90;99.90;;;;;;4946584;28;20054;-77
2023/09/06 06:30:00;;;;;;;7.97;3.15;;;24.10;99.90;;;;;;4994777;28;20065;-71
2023/09/06 06:32:26;;;;;;;9.93;3.95;;;24.30;99.90;;;;;;4969463;28;20057;-72
2023/09/06 06:34:54;;;;;;;13.07;3.25;;;24.60;99.90;;;;;;4940169;28;20050;-70
2023/09/06 06:37:21;;;;;;;9.60;3.10;;;24.90;99.90;;;;;;4950076;28;1052985;-70
2023/09/06 06:39:48;;;;;;;9.63;2.80;;;25.10;99.90;;;;;;4941133;28;20050;-71
2023/09/06 06:42:14;;;;;;;12.40;3.13;;;25.40;99.90;;;;;;4982250;28;20050;-74
2023/09/06 06:44:47;;;;;;;10.18;2.95;;;25.50;99.90;;;;;;4979102;28;20057;-72
2023/09/06 06:47:13;;;;;;;9.63;3.20;;;25.60;99.90;;;;;;5004519;28;20056;-71
2023/09/06 06:49:40;;;;;;;9.40;3.03;;;25.80;99.90;;;;;;4977125;28;20046;-71
2023/09/06 06:52:06;;;;;;;9.55;2.70;;;26.00;99.90;;;;;;5010039;28;20065;-70
2023/09/06 06:54:32;;;;;;;7.20;2.58;;;26.20;99.90;;;;;;4934222;28;171693;-71
2023/09/06 06:56:58;;;;;;;7.45;2.60;;;26.40;99.90;;;;;;5003149;28;20046;-72
2023/09/06 06:59:24;;;;;;;7.88;2.83;;;26.70;99.90;;;;;;4972261;28;20054;-72
2023/09/06 07:01:50;;;;;;;6.97;2.30;;;26.70;99.90;;;;;;5003074;28;20049;-71
2023/09/06 07:04:16;;;;;;;9.38;2.50;;;26.80;99.80;;;;;;4967757;28;20104;-71
2023/09/06 07:06:42;;;;;;;8.25;2.50;;;27.10;99.80;;;;;;5000803;28;20467;-72
2023/09/06 07:09:10;;;;;;;7.35;2.30;;;27.40;99.50;;;;;;4975379;28;20235;-72
2023/09/06 07:11:37;;;;;;;6.85;2.20;;;27.70;99.20;;;;;;5003239;28;20061;-70
2023/09/06 07:14:04;;;;;;;7.32;2.10;;;27.90;98.80;;;;;;4974890;28;20036;-70
2023/09/06 07:16:31;;;;;;;9.07;2.10;;;28.20;98.80;;;;;;5003112;28;20054;-71
2023/09/06 07:18:58;;;;;;;6.88;2.00;;;28.40;98.10;;;;;;4954296;28;20050;-71
2023/09/06 07:21:25;;;;;;;7.82;2.10;;;28.30;97.80;;;;;;4997335;28;20050;-71
2023/09/06 07:23:51;;;;;;;8.48;2.50;;;28.30;97.50;;;;;;4971301;28;20045;-71
2023/09/06 07:26:18;;;;;;;8.32;2.40;;;28.50;97.30;;;;;;5004272;28;20575;-70
2023/09/06 07:28:45;;;;;;;7.95;2.20;;;28.50;96.90;;;;;;4963891;28;20633;-69
2023/09/06 07:31:14;;;;;;;7.38;2.00;;;28.70;96.60;;;;;;5002112;28;20357;-71
2023/09/06 07:33:40;;;;;;;7.03;2.10;;;28.70;96.70;;;;;;4952580;28;20113;-70
2023/09/06 07:36:07;;;;;;;6.70;2.10;;;28.90;96.10;;;;;;5002459;28;20042;-71
2023/09/06 07:38:34;;;;;;;6.57;2.00;;;28.90;96.10;;;;;;4962674;28;20416;-73
2023/09/06 07:41:05;;;;;;;6.32;1.80;;;29.00;95.80;;;;;;4996916;28;20054;-71
2023/09/06 07:43:32;;;;;;;8.23;2.20;;;29.00;95.30;;;;;;4971117;28;20048;-69
2023/09/06 07:45:59;;;;;;;7.28;2.20;;;29.00;94.60;;;;;;5007736;28;20050;-71
2023/09/06 07:48:30;;;;;;;8.90;2.00;;;29.10;94.90;;;;;;4966528;28;20050;-69
2023/09/06 07:50:58;;;;;;;6.35;1.83;;;29.30;94.50;;;;;;4992367;28;20057;-72
2023/09/06 07:53:25;;;;;;;6.97;1.80;;;29.40;94.20;;;;;;4949364;28;184228;-72
2023/09/06 07:55:53;;;;;;;9.32;2.00;;;29.50;93.30;;;;;;5012453;28;20799;-70
2023/09/06 07:58:19;;;;;;;8.35;2.17;;;29.20;93.60;;;;;;4962609;28;20050;-70
2023/09/06 08:00:46;;;;;;;6.03;1.83;;;29.20;93.40;;;;;;5003677;28;20049;-71
2023/09/06 08:03:12;;;;;;;7.13;1.75;;;29.10;92.80;;;;;;4970890;28;20053;-70
2023/09/06 08:05:38;;;;;;;7.38;2.10;;;28.90;93.50;;;;;;5011476;28;20056;-71
2023/09/06 08:08:06;;;;;;;8.23;1.90;;;29.00;93.10;;;;;;4977044;28;20057;-70
2023/09/06 08:10:33;;;;;;;9.05;2.15;;;29.00;93.00;;;;;;5012932;28;20045;-71
2023/09/06 08:12:59;;;;;;;6.68;2.00;;;29.10;92.50;;;;;;4963104;28;20054;-70
2023/09/06 08:15:25;;;;;;;6.90;2.13;;;29.40;92.90;;;;;;4990307;28;20069;-71
2023/09/06 08:17:52;;;;;;;7.43;2.15;;;29.80;93.10;;;;;;4965190;28;20049;-72
2023/09/06 08:20:18;;;;;;;7.80;2.00;;;30.20;92.70;;;;;;5008619;28;20064;-71
2023/09/06 08:22:45;;;;;;;7.63;2.10;;;30.40;92.80;;;;;;4964421;28;20049;-71
2023/09/06 08:25:12;;;;;;;6.78;1.95;;;30.50;92.30;;;;;;5013791;28;20586;-70
2023/09/06 08:27:38;;;;;;;7.32;2.15;;;30.70;92.20;;;;;;4966746;28;20399;-71
2023/09/06 08:30:07;;;;;;;8.60;1.75;;;30.80;92.00;;;;;;4992776;28;20046;-70
2023/09/06 08:32:33;;;;;;;8.60;1.88;;;30.70;91.10;;;;;;4959763;28;20055;-71
2023/09/06 08:34:59;;;;;;;7.85;1.90;;;30.90;91.40;;;;;;5013390;28;20053;-70
2023/09/06 08:37:26;;;;;;;7.80;2.10;;;31.20;91.20;;;;;;4988480;28;20058;-70
2023/09/06 08:39:52;;;;;;;7.65;1.88;;;31.50;90.10;;;;;;4985373;28;20590;-71
2023/09/06 08:42:20;;;;;;;6.50;2.08;;;31.60;90.20;;;;;;5001854;28;20133;-71
2023/09/06 08:44:48;;;;;;;8.77;2.20;;;31.90;91.00;;;;;;4964596;28;20064;-71
2023/09/06 08:47:18;;;;;;;7.80;1.88;;;31.60;89.40;;;;;;5005931;28;20053;-70
2023/09/06 08:49:47;;;;;;;8.20;1.97;;;31.70;90.60;;;;;;4974426;28;20054;-70
2023/09/06 08:52:17;;;;;;;10.52;1.90;;;31.90;90.60;;;;;;5005705;28;20050;-70
2023/09/06 08:54:45;;;;;;;7.57;1.90;;;32.30;88.70;;;;;;4933299;28;45223;-70
2023/09/06 08:57:13;;;;;;;8.40;1.80;;;32.40;89.20;;;;;;4983656;28;20063;-71
2023/09/06 08:59:39;;;;;;;7.22;1.92;;;32.70;90.00;;;;;;4954933;28;20037;-71
2023/09/06 09:02:10;;;;;;;7.40;1.95;;;33.10;89.40;;;;;;4985900;28;20038;-72
2023/09/06 09:04:42;;;;;;;8.88;2.00;;;33.30;88.50;;;;;;4944706;28;20058;-72
2023/09/06 09:07:13;;;;;;;8.32;1.80;;;33.40;86.80;;;;;;4984927;28;20050;-71
2023/09/06 09:09:59;;;;;;;7.03;2.00;;;33.60;86.90;;;;;;4942018;28;20046;-74
2023/09/06 09:12:27;;;;;;;8.68;2.03;;;33.80;85.30;;;;;;4971086;28;20532;-70
2023/09/06 09:14:56;;;;;;;6.28;1.80;;;33.90;87.20;;;;;;4982350;28;20043;-71
2023/09/06 09:17:27;;;;;;;8.33;2.07;;;34.30;85.70;;;;;;5007869;28;20064;-72
2023/09/06 09:19:55;;;;;;;6.70;1.60;;;34.80;86.20;;;;;;4929557;28;20533;-70
2023/09/06 09:22:22;;;;;;;6.57;1.80;;;35.20;85.50;;;;;;5005068;28;20058;-74
2023/09/06 09:24:49;;;;;;;7.07;1.90;;;35.70;84.50;;;;;;4947055;28;20053;-72
2023/09/06 09:27:17;;;;;;;6.45;1.88;;;36.00;84.70;;;;;;5003735;28;20049;-71
2023/09/06 09:29:44;;;;;;;7.22;2.00;;;35.90;83.30;;;;;;4965235;28;20061;-71
2023/09/06 09:32:13;;;;;;;6.70;1.95;;;36.10;82.50;;;;;;5007998;28;20057;-72
2023/09/06 09:34:40;;;;;;;6.72;1.73;;;35.60;81.60;;;;;;4983209;28;20076;-74
2023/09/06 09:37:08;;;;;;;6.45;2.00;;;35.70;81.80;;;;;;5008337;28;20058;-70
2023/09/06 09:39:34;;;;;;;8.50;2.17;;;36.00;82.40;;;;;;4969710;28;20046;-70
2023/09/06 09:42:01;;;;;;;9.10;2.00;;;36.40;80.40;;;;;;5013863;28;20050;-73
2023/09/06 09:44:27;;;;;;;7.35;1.80;;;36.70;80.30;;;;;;4980972;28;20042;-73
2023/09/06 09:46:58;;;;;;;8.63;1.90;;;37.10;80.10;;;;;;5008418;28;20048;-72
2023/09/06 09:49:25;;;;;;;7.32;1.83;;;37.50;79.30;;;;;;4962735;28;20054;-71
2023/09/06 09:51:51;;;;;;;6.57;1.85;;;37.80;78.40;;;;;;5008744;28;20058;-74
2023/09/06 09:54:21;;;;;;;7.95;2.10;;;37.90;77.60;;;;;;4967480;28;241611;-71
2023/09/06 09:57:00;;;;;;;9.50;2.17;;;38.10;76.50;;;;;;5005456;28;20440;-72
2023/09/06 09:59:26;;;;;;;6.57;1.83;;;38.30;76.60;;;;;;4968221;28;20060;-72
2023/09/06 10:01:54;;;;;;;8.57;2.20;;;38.40;76.90;;;;;;4998791;28;20062;-71
2023/09/06 10:04:21;;;;;;;6.50;1.75;;;38.30;75.60;;;;;;4958919;28;20049;-71
2023/09/06 10:06:47;;;;;;;6.43;1.75;;;38.40;77.10;;;;;;5004215;28;20506;-72
2023/09/06 10:09:16;;;;;;;6.28;1.80;;;38.80;77.10;;;;;;4962919;28;20054;-72
2023/09/06 10:11:42;;;;;;;7.22;1.90;;;39.10;76.60;;;;;;4987483;28;20467;-71
2023/09/06 10:14:11;;;;;;;8.88;1.88;;;39.40;75.50;;;;;;4944654;28;20046;-76
2023/09/06 10:16:38;;;;;;;4.57;1.50;;;39.40;74.20;;;;;;4979494;28;20061;-73
2023/09/06 10:19:04;;;;;;;6.93;1.80;;;39.30;73.60;;;;;;4944478;28;20312;-71
2023/09/06 10:21:31;;;;;;;7.18;2.03;;;39.30;73.90;;;;;;4989030;28;20054;-73
2023/09/06 10:23:59;;;;;;;7.22;1.70;;;39.40;73.40;;;;;;4943052;28;20061;-72
2023/09/06 10:26:26;;;;;;;8.88;1.85;;;39.40;73.20;;;;;;4976807;28;20053;-71
2023/09/06 10:29:00;;;;;;;6.80;1.90;;;39.20;72.30;;;;;;4946721;28;20054;-72
2023/09/06 10:31:49;;;;;;;6.35;1.75;;;39.00;72.30;;;;;;4986270;28;20061;-73
2023/09/06 10:34:15;;;;;;;8.23;2.00;;;39.20;72.20;;;;;;4958293;28;20098;-73
2023/09/06 10:36:53;;;;;;;6.63;1.80;;;38.80;71.80;;;;;;4982971;28;20057;-73
2023/09/06 10:39:21;;;;;;;7.50;1.60;;;38.80;72.30;;;;;;4961341;28;20049;-72
2023/09/06 10:42:13;;;;;;;5.13;1.40;;;39.10;72.60;;;;;;4983758;28;20054;-71
2023/09/06 10:44:58;;;;;;;6.30;1.63;;;39.40;71.60;;;;;;4963501;28;20038;-71
2023/09/06 10:47:26;;;;;;;8.50;1.50;;;39.30;70.60;;;;;;4973913;28;20053;-72
2023/09/06 10:50:11;;;;;;;6.25;1.70;;;39.30;71.00;;;;;;4955644;28;20410;-73
2023/09/06 10:52:48;;;;;;;6.70;1.70;;;39.50;70.20;;;;;;4949554;28;242658;-72
2023/09/06 10:55:22;;;;;;;6.05;1.60;;;39.60;71.30;;;;;;5000111;28;20050;-71
2023/09/06 10:57:49;;;;;;;7.15;1.63;;;39.90;72.20;;;;;;4966781;28;20054;-73
2023/09/06 11:00:20;;;;;;;6.85;1.58;;;40.00;70.00;;;;;;5000194;28;20065;-70
2023/09/06 11:03:04;;;;;;;7.80;1.67;;;39.80;70.00;;;;;;4969842;28;20792;-71
2023/09/06 11:05:38;;;;;;;6.50;1.58;;;39.90;70.70;;;;;;5010588;28;20049;-74
2023/09/06 11:08:06;;;;;;;5.75;1.50;;;39.80;70.40;;;;;;4963555;28;20518;-73
2023/09/06 11:10:33;;;;;;;9.00;1.80;;;39.80;70.80;;;;;;4999449;28;20052;-76
2023/09/06 11:13:10;;;;;;;6.32;1.52;;;39.60;69.70;;;;;;4963622;28;20058;-72
2023/09/06 11:15:37;;;;;;;6.03;1.50;;;39.50;68.60;;;;;;4994762;28;20786;-72
2023/09/06 11:18:03;;;;;;;5.78;1.70;;;39.60;69.40;;;;;;4963306;28;20053;-71
2023/09/06 11:20:34;;;;;;;5.93;1.60;;;39.60;69.20;;;;;;4999885;28;20057;-71
2023/09/06 11:23:02;;;;;;;7.78;1.63;;;39.90;68.40;;;;;;4968044;28;20065;-72
2023/09/06 11:25:31;;;;;;;5.53;1.50;;;40.10;69.20;;;;;;5007140;28;20057;-72
2023/09/06 11:28:00;;;;;;;5.15;1.60;;;40.40;69.40;;;;;;4965822;28;20053;-72
2023/09/06 11:30:31;;;;;;;8.73;1.70;;;40.60;69.20;;;;;;5009209;28;20061;-72
2023/09/06 11:32:58;;;;;;;7.90;1.65;;;40.60;68.30;;;;;;4962924;28;20376;-72
2023/09/06 11:35:31;;;;;;;5.03;1.55;;;40.60;68.80;;;;;;4994738;28;20078;-75
2023/09/06 11:37:58;;;;;;;8.07;1.63;;;40.90;68.50;;;;;;4944408;28;20096;-76
2023/09/06 11:40:27;;;;;;;7.35;1.60;;;40.80;66.80;;;;;;4996601;28;20065;-72
2023/09/06 11:43:04;;;;;;;7.03;1.52;;;40.30;66.90;;;;;;4941964;28;20057;-73
2023/09/06 11:45:32;;;;;;;6.90;1.50;;;39.90;65.10;;;;;;4976842;28;20054;-73
2023/09/06 11:48:04;;;;;;;6.18;1.58;;;39.60;67.80;;;;;;4947921;28;20050;-74
2023/09/06 11:50:34;;;;;;;6.32;1.50;;;39.80;67.80;;;;;;4983961;28;20065;-73
2023/09/06 11:53:04;;;;;;;5.47;1.30;;;40.40;67.90;;;;;;4934213;28;155957;-72
2023/09/06 11:55:34;;;;;;;8.90;1.50;;;40.80;67.20;;;;;;5003326;28;20046;-73
2023/09/06 11:58:00;;;;;;;6.65;1.60;;;41.00;66.80;;;;;;4961563;28;20066;-73
2023/09/06 12:00:45;;;;;;;8.07;1.90;;;41.20;66.80;;;;;;4979440;28;20054;-72
2023/09/06 12:03:28;;;;;;;4.47;1.30;;;41.50;64.30;;;;;;4946311;28;20620;-72
2023/09/06 12:05:56;;;;;;;6.38;1.45;;;40.80;64.80;;;;;;4983815;28;20078;-73
2023/09/06 12:08:23;;;;;;;5.03;1.30;;;40.40;66.60;;;;;;4954614;28;20396;-72
2023/09/06 12:10:58;;;;;;;5.53;1.60;;;40.60;67.20;;;;;;5007524;28;20057;-74
2023/09/06 12:13:28;;;;;;;8.00;1.50;;;40.90;66.40;;;;;;4963823;28;20062;-74
2023/09/06 12:15:56;;;;;;;5.90;1.50;;;41.20;65.70;;;;;;4983729;28;20069;-73
2023/09/06 12:18:28;;;;;;;6.22;1.50;;;41.30;66.50;;;;;;4951172;28;20108;-72
2023/09/06 12:20:58;;;;;;;5.95;1.48;;;41.40;65.60;;;;;;4992886;28;20534;-73
2023/09/06 12:23:32;;;;;;;6.13;1.45;;;41.60;63.80;;;;;;4954072;28;20450;-74
2023/09/06 12:26:00;;;;;;;4.82;1.33;;;41.30;63.70;;;;;;4987198;28;20070;-73
2023/09/06 12:28:28;;;;;;;3.97;1.33;;;41.10;65.20;;;;;;4939695;28;20057;-72
2023/09/06 12:30:55;;;;;;;4.90;1.30;;;41.30;65.70;;;;;;4996673;28;20046;-72
2023/09/06 12:33:22;;;;;;;6.93;1.42;;;41.50;65.60;;;;;;4955427;28;20058;-73
2023/09/06 12:35:58;;;;;;;6.82;1.50;;;41.50;65.50;;;;;;4968738;28;20074;-73
2023/09/06 12:38:25;;;;;;;6.05;1.50;;;41.60;63.70;;;;;;4936127;28;20047;-72
2023/09/06 12:40:51;;;;;;;5.93;1.50;;;41.80;64.90;;;;;;4948172;28;20554;-72
2023/09/06 12:43:17;;;;;;;6.10;1.50;;;42.10;64.50;;;;;;4944093;28;20452;-72
2023/09/06 12:45:47;;;;;;;3.85;1.30;;;42.10;64.40;;;;;;4970643;28;20061;-76
2023/09/06 12:48:14;;;;;;;6.80;1.40;;;42.30;64.70;;;;;;4949307;28;20426;-71
2023/09/06 12:50:40;;;;;;;5.78;1.50;;;42.30;62.90;;;;;;4987040;28;20058;-73